Comandante Luis Piedra Buena, Argentina
Current Conditions -  °F | °C
As of 7:00 AM on Wednesday 26 Nov 2014 (Local Time) from SAWG Reporting Station
Clear Clear  
Wind Chill: 50°   Ceiling: Unl
Heat Index: 50°   Visibility: 6mi
Dew Point: 37°   Wind: 24mph
Humidity: 62%   Direction: 270°W
Pressure: 29.65"   Gusts: NA
Location:  49.98°S, 68.9°W
Report Text: SAWG 261000Z 27021KT CAVOK 10/03 Q1004
Loading
Personal Weather Stations






























Interactive Weather Map New forecast layout! Learn more

10-Day Weather Forecast

Advertisements
Track Severe Weather on mobile